Time;durP1;ratioP1;P1;durP2;ratioP2;P2;SDS_P1;SDS_P2;PMS_P1;PMS_P2;Temp;Humidity;BMP_temperature;BMP_pressure;BME280_temperature;BME280_humidity;BME280_pressure;Samples;Min_cycle;Max_cycle;Signal;HPM_P1;HPM_P2
2022/03/02 00:00:21;;;;;;;49.42;26.02;;;;;;;4.06;71.76;102659.16;4992547;28;20085;-90
2022/03/02 00:02:46;;;;;;;49.53;26.52;;;;;;;4.09;71.91;102670.22;4992576;28;20034;-89
2022/03/02 00:05:13;;;;;;;47.45;26.15;;;;;;;3.91;70.48;102637.09;4992570;28;20034;-90
2022/03/02 00:07:39;;;;;;;45.63;26.98;;;;;;;3.95;71.27;102644.75;4992771;28;20058;-86
2022/03/02 00:10:04;;;;;;;52.45;26.92;;;;;;;3.94;72.20;102670.31;4992461;28;20484;-83
2022/03/02 00:12:30;;;;;;;48.65;24.77;;;;;;;3.84;68.79;102648.25;4992764;28;20109;-87
2022/03/02 00:14:56;;;;;;;46.10;24.83;;;;;;;3.53;68.33;102597.28;4993105;28;20027;-91
2022/03/02 00:17:22;;;;;;;46.40;24.98;;;;;;;3.69;69.37;102634.69;4992406;28;20026;-81
2022/03/02 00:19:47;;;;;;;45.10;26.17;;;;;;;3.56;70.08;102611.78;4994205;28;20077;-89
2022/03/02 00:22:13;;;;;;;47.55;26.00;;;;;;;3.88;68.41;102666.09;4996137;28;20118;-89
2022/03/02 00:24:38;;;;;;;46.55;25.55;;;;;;;3.88;68.26;102667.78;4996004;28;20037;-85
2022/03/02 00:27:04;;;;;;;47.03;24.67;;;;;;;3.89;67.62;102666.94;4995987;28;20023;-88
2022/03/02 00:29:29;;;;;;;48.15;25.33;;;;;;;3.82;69.51;102658.44;4995924;28;20065;-89
2022/03/02 00:31:54;;;;;;;48.17;24.92;;;;;;;3.83;69.79;102654.19;4996639;28;20077;-89
2022/03/02 00:34:20;;;;;;;49.60;26.58;;;;;;;3.75;71.11;102654.25;4995809;28;20026;-89
2022/03/02 00:36:45;;;;;;;46.13;24.98;;;;;;;3.50;70.98;102616.91;4995757;28;20097;-85
2022/03/02 00:39:11;;;;;;;51.03;26.65;;;;;;;3.31;71.76;102595.69;4995897;28;20030;-82
2022/03/02 00:41:36;;;;;;;48.00;23.63;;;;;;;3.64;70.07;102654.31;4995737;28;20026;-80
2022/03/02 00:44:02;;;;;;;47.72;26.20;;;;;;;3.60;70.92;102641.53;4995563;28;20018;-78
2022/03/02 00:46:29;;;;;;;46.33;25.08;;;;;;;3.52;70.51;102635.63;4995954;28;20065;-78
2022/03/02 00:49:01;;;;;;;46.90;25.45;;;;;;;3.46;71.32;102623.72;4995718;28;20022;-81
2022/03/02 00:51:27;;;;;;;;;;;;;;;3.65;71.03;102644.94;4996066;28;20463;-83
2022/03/02 00:53:53;;;;;;;47.95;25.75;;;;;;;3.19;71.59;102578.75;4995533;28;19997;-80
2022/03/02 00:56:20;;;;;;;44.47;25.35;;;;;;;3.23;71.26;102590.63;4995559;28;20026;-80
2022/03/02 00:58:45;;;;;;;45.45;25.58;;;;;;;3.58;71.86;102639.00;4995344;28;20428;-81
2022/03/02 01:01:10;;;;;;;41.90;24.23;;;;;;;3.60;71.15;102650.03;4995129;28;20065;-78
2022/03/02 01:03:36;;;;;;;44.25;23.83;;;;;;;3.20;70.64;102577.88;4995267;28;20173;-77
2022/03/02 01:06:03;;;;;;;46.78;25.23;;;;;;;3.62;69.22;102644.94;4995473;28;20030;-84
2022/03/02 01:08:29;;;;;;;44.67;25.48;;;;;;;3.55;70.03;102616.03;4995490;28;20120;-78
2022/03/02 01:10:54;;;;;;;48.72;25.13;;;;;;;3.71;68.44;102640.63;4995392;28;20030;-77
2022/03/02 01:13:20;;;;;;;42.15;25.00;;;;;;;3.32;69.83;102570.16;4995001;28;20022;-77
2022/03/02 01:15:45;;;;;;;43.42;24.95;;;;;;;3.72;71.24;102629.53;4995114;28;20030;-82
2022/03/02 01:18:10;;;;;;;45.80;24.08;;;;;;;3.54;71.38;102601.56;4994903;28;20035;-78
2022/03/02 01:20:36;;;;;;;45.00;25.63;;;;;;;3.69;70.54;102632.13;4995176;28;20026;-78
2022/03/02 01:23:01;;;;;;;47.35;24.92;;;;;;;3.63;68.12;102609.16;4995170;28;20029;-78
2022/03/02 01:25:27;;;;;;;42.20;22.92;;;;;;;3.81;66.32;102625.25;4995187;28;20491;-77
2022/03/02 01:27:52;;;;;;;38.72;22.75;;;;;;;3.84;65.57;102625.25;4994863;28;20472;-81
2022/03/02 01:30:18;;;;;;;40.08;22.50;;;;;;;3.89;66.16;102619.22;4994164;28;20507;-77
2022/03/02 01:32:43;;;;;;;42.33;22.27;;;;;;;3.91;66.93;102616.66;4994701;28;20030;-90
2022/03/02 01:35:11;;;;;;;44.28;24.55;;;;;;;3.68;68.17;102576.78;4994936;28;20026;-89
2022/03/02 01:37:36;;;;;;;42.58;23.98;;;;;;;3.86;66.78;102606.47;4994908;28;20073;-85
2022/03/02 01:40:02;;;;;;;40.40;22.27;;;;;;;3.71;65.84;102581.00;4994779;28;20030;-77
2022/03/02 01:42:28;;;;;;;45.28;23.55;;;;;;;3.88;65.43;102609.00;4994707;28;20465;-91
2022/03/02 01:44:53;;;;;;;43.45;22.40;;;;;;;3.85;64.57;102598.81;4994585;28;20030;-90
2022/03/02 01:47:18;;;;;;;43.92;21.67;;;;;;;3.95;64.35;102608.97;4994635;28;20031;-77
2022/03/02 01:49:44;;;;;;;38.67;21.33;;;;;;;3.72;64.12;102573.31;4994455;28;20051;-90
2022/03/02 01:52:09;;;;;;;42.30;22.95;;;;;;;3.83;64.03;102586.03;4994756;28;20069;-93
2022/03/02 01:54:35;;;;;;;41.95;22.50;;;;;;;3.96;63.53;102604.72;4994372;28;20109;-91
2022/03/02 01:57:00;;;;;;;41.63;22.40;;;;;;;3.83;62.40;102580.91;4994390;28;20162;-82
2022/03/02 01:59:26;;;;;;;40.67;22.40;;;;;;;3.90;63.42;102597.06;4994458;28;20030;-77
2022/03/02 02:01:51;;;;;;;37.05;21.65;;;;;;;3.95;62.98;102603.00;4994215;28;20034;-78
2022/03/02 02:04:16;;;;;;;40.72;21.58;;;;;;;3.95;62.73;102595.34;4993903;28;20026;-77
2022/03/02 02:06:45;;;;;;;40.25;21.92;;;;;;;3.94;62.87;102589.38;4994177;28;20550;-78
2022/03/02 02:09:10;;;;;;;39.65;21.55;;;;;;;3.94;62.10;102593.66;4994189;28;20034;-77
2022/03/02 02:11:35;;;;;;;38.58;20.35;;;;;;;3.69;62.14;102544.41;4993991;28;20045;-77
2022/03/02 02:14:01;;;;;;;37.25;21.98;;;;;;;3.95;64.02;102585.97;4994252;28;20688;-80
2022/03/02 02:16:27;;;;;;;43.95;21.58;;;;;;;3.61;61.73;102526.56;4992945;28;20037;-77
2022/03/02 02:18:55;;;;;;;36.05;19.95;;;;;;;3.72;61.42;102550.34;5008951;28;20049;-77
2022/03/02 02:21:20;;;;;;;35.15;19.42;;;;;;;3.91;61.82;102581.72;4994064;28;20030;-76
2022/03/02 02:23:46;;;;;;;42.58;21.30;;;;;;;3.89;61.90;102577.47;4993695;28;20045;-77
2022/03/02 02:26:12;;;;;;;39.03;20.83;;;;;;;3.87;61.41;102584.31;4993960;28;20073;-77
2022/03/02 02:28:37;;;;;;;38.92;21.15;;;;;;;3.77;61.45;102569.91;4993844;28;20491;-80
2022/03/02 02:31:03;;;;;;;39.95;21.00;;;;;;;3.69;61.72;102549.50;4993734;28;20041;-80
2022/03/02 02:33:29;;;;;;;40.75;21.60;;;;;;;3.79;61.34;102569.03;4992655;28;20027;-79
2022/03/02 02:35:55;;;;;;;35.25;20.02;;;;;;;3.75;61.01;102577.59;4993598;28;20116;-78
2022/03/02 02:38:21;;;;;;;39.78;20.80;;;;;;;3.70;61.58;102574.19;4993862;28;20152;-77
2022/03/02 02:40:48;;;;;;;38.47;21.17;;;;;;;3.67;62.66;102567.41;4993592;28;20490;-76
2022/03/02 02:43:15;;;;;;;38.95;21.17;;;;;;;3.64;62.20;102569.16;4993257;28;20033;-79
2022/03/02 02:45:41;;;;;;;38.25;21.20;;;;;;;3.62;62.47;102561.47;4993653;28;20054;-78
2022/03/02 02:48:06;;;;;;;35.40;20.58;;;;;;;3.61;62.14;102562.34;4992299;28;20531;-82
2022/03/02 02:50:33;;;;;;;37.05;21.67;;;;;;;3.55;62.10;102562.38;4993183;28;20038;-82
2022/03/02 02:53:03;;;;;;;36.45;21.35;;;;;;;3.45;62.00;102546.28;4993402;28;20026;-77
2022/03/02 02:55:30;;;;;;;40.00;21.83;;;;;;;3.54;62.93;102559.81;4993561;28;20058;-77
2022/03/02 02:57:56;;;;;;;43.38;21.75;;;;;;;3.52;62.82;102552.16;4993574;28;20045;-84
2022/03/02 03:00:24;;;;;;;38.55;19.95;;;;;;;3.48;62.51;102559.88;4993217;28;20483;-78
2022/03/02 03:02:51;;;;;;;41.85;21.40;;;;;;;3.36;62.78;102546.31;4993309;28;20491;-77
2022/03/02 03:05:19;;;;;;;35.65;20.30;;;;;;;3.41;62.89;102553.94;4993373;28;20054;-78
2022/03/02 03:07:46;;;;;;;35.53;21.30;;;;;;;3.35;62.74;102549.75;4993203;28;20030;-82
2022/03/02 03:10:12;;;;;;;36.70;19.95;;;;;;;3.07;62.97;102508.19;4993311;28;20038;-78
2022/03/02 03:12:38;;;;;;;40.88;21.30;;;;;;;3.29;63.75;102549.75;4993138;28;20089;-79
2022/03/02 03:15:06;;;;;;;37.28;22.23;;;;;;;3.06;63.51;102524.34;4993247;28;20034;-88
2022/03/02 03:17:31;;;;;;;38.63;20.70;;;;;;;3.17;63.41;102535.34;4993189;28;20022;-88
2022/03/02 03:19:57;;;;;;;37.47;20.80;;;;;;;3.22;63.46;102548.09;4992892;28;20041;-77
2022/03/02 03:22:22;;;;;;;36.80;20.75;;;;;;;2.97;63.25;102509.09;4993074;28;20117;-80
2022/03/02 03:24:47;;;;;;;36.53;20.70;;;;;;;3.09;63.77;102536.25;4993301;28;20061;-79
2022/03/02 03:27:13;;;;;;;34.75;20.25;;;;;;;3.01;63.03;102531.16;4993072;28;20361;-78
2022/03/02 03:29:38;;;;;;;39.03;20.98;;;;;;;3.12;63.65;102548.97;4993021;28;20154;-78
2022/03/02 03:32:05;;;;;;;38.22;20.77;;;;;;;2.91;63.58;102513.34;4993131;28;20026;-81
2022/03/02 03:34:30;;;;;;;34.95;20.10;;;;;;;2.99;64.16;102535.44;4992616;28;20053;-77
2022/03/02 03:36:56;;;;;;;36.42;21.02;;;;;;;2.83;63.85;102513.38;5008192;28;20050;-77
2022/03/02 03:39:21;;;;;;;39.90;20.23;;;;;;;2.78;63.86;102508.31;4993006;28;20054;-77
2022/03/02 03:41:46;;;;;;;36.70;19.70;;;;;;;2.97;64.24;102547.34;4993190;28;20026;-78
2022/03/02 03:44:12;;;;;;;37.40;20.85;;;;;;;2.92;65.78;102543.97;4992979;28;20119;-77
2022/03/02 03:46:37;;;;;;;38.67;19.88;;;;;;;2.70;65.84;102519.38;4992971;28;20077;-77
2022/03/02 03:49:02;;;;;;;35.67;19.73;;;;;;;2.83;65.80;102549.09;4992675;28;20029;-85
2022/03/02 03:51:28;;;;;;;35.45;20.60;;;;;;;2.74;67.79;102547.41;5007516;28;20034;-81
2022/03/02 03:53:53;;;;;;;35.88;19.92;;;;;;;2.72;66.50;102551.69;4991480;28;20108;-81
2022/03/02 03:56:18;;;;;;;38.60;20.67;;;;;;;2.69;66.22;102544.03;4996626;28;20038;-82
2022/03/02 03:58:44;;;;;;;34.95;20.38;;;;;;;2.60;67.81;102554.28;4996627;28;20484;-78
2022/03/02 04:01:09;;;;;;;34.42;19.52;;;;;;;2.38;67.43;102514.38;4996542;28;20058;-80
2022/03/02 04:03:35;;;;;;;36.88;19.60;;;;;;;2.56;66.19;102550.88;4996425;28;20484;-81
2022/03/02 04:06:01;;;;;;;36.38;19.88;;;;;;;2.52;67.09;102546.63;4996200;28;20022;-77
2022/03/02 04:08:27;;;;;;;37.65;20.65;;;;;;;2.43;68.77;102539.00;4996302;28;20050;-79
2022/03/02 04:10:52;;;;;;;37.13;20.75;;;;;;;2.37;69.10;102535.63;4996166;28;20106;-79
2022/03/02 04:13:17;;;;;;;38.17;20.80;;;;;;;1.90;67.70;102452.44;4996327;28;20021;-79
2022/03/02 04:15:43;;;;;;;39.15;20.08;;;;;;;2.33;69.46;102526.25;4996161;28;20032;-81
2022/03/02 04:18:08;;;;;;;33.75;19.50;;;;;;;2.35;68.37;102525.41;4996122;28;20084;-83
2022/03/02 04:20:35;;;;;;;37.95;19.73;;;;;;;2.29;68.77;102517.78;4996123;28;20098;-84
2022/03/02 04:23:00;;;;;;;33.22;19.30;;;;;;;2.13;67.66;102483.81;4996113;28;20031;-79
2022/03/02 04:25:26;;;;;;;33.67;18.60;;;;;;;2.17;66.27;102482.97;4996060;28;20034;-77
2022/03/02 04:27:51;;;;;;;32.03;18.42;;;;;;;2.38;65.76;102505.03;4996136;28;20036;-81
2022/03/02 04:30:17;;;;;;;34.88;19.75;;;;;;;2.27;66.37;102481.25;4995941;28;20472;-77
2022/03/02 04:32:43;;;;;;;32.58;19.67;;;;;;;2.51;65.66;102516.88;4996036;28;20026;-78
2022/03/02 04:35:10;;;;;;;33.42;19.15;;;;;;;2.55;65.86;102510.06;4995963;28;20360;-80
2022/03/02 04:37:37;;;;;;;37.13;18.35;;;;;;;2.57;65.68;102506.69;4995893;28;20030;-78
2022/03/02 04:40:05;;;;;;;30.58;18.20;;;;;;;2.25;65.89;102452.34;4995864;28;20058;-81
2022/03/02 04:42:31;;;;;;;33.55;18.27;;;;;;;2.59;65.84;102504.13;4995837;28;20455;-81
2022/03/02 04:44:56;;;;;;;32.15;18.77;;;;;;;2.58;65.37;102503.28;4995625;28;20027;-82
2022/03/02 04:47:21;;;;;;;34.80;19.65;;;;;;;2.42;66.45;102481.22;4995761;28;20026;-87
2022/03/02 04:49:47;;;;;;;35.50;18.67;;;;;;;2.51;68.10;102496.47;4995378;28;20030;-83
2022/03/02 04:52:12;;;;;;;33.42;19.23;;;;;;;2.32;66.50;102471.88;4995512;28;20057;-83
2022/03/02 04:57:21;;;;;;;31.67;18.77;;;;;;;2.39;68.20;102501.63;4996033;28;20073;-77
2022/03/02 04:59:46;;;;;;;31.85;18.20;;;;;;;2.39;66.33;102500.78;4995371;28;20034;-83
2022/03/02 05:02:12;;;;;;;31.77;18.55;;;;;;;2.19;66.58;102462.59;4995401;28;20034;-77
2022/03/02 05:04:37;;;;;;;30.02;18.13;;;;;;;2.41;65.73;102499.06;4995278;28;20105;-78
2022/03/02 05:07:03;;;;;;;30.70;17.23;;;;;;;2.39;66.03;102488.88;4993988;28;20037;-79
2022/03/02 05:09:28;;;;;;;33.70;19.08;;;;;;;2.22;65.54;102471.06;4995274;28;20494;-79
2022/03/02 05:11:54;;;;;;;30.15;17.15;;;;;;;2.01;64.97;102430.34;4995178;28;20029;-81
2022/03/02 05:14:19;;;;;;;32.20;17.55;;;;;;;2.35;66.03;102488.88;4995277;28;20042;-80
2022/03/02 05:16:45;;;;;;;33.13;18.85;;;;;;;2.32;66.10;102491.44;4995067;28;20452;-77
2022/03/02 05:19:10;;;;;;;28.30;16.65;;;;;;;2.33;65.28;102488.03;4995246;28;20026;-77
2022/03/02 05:21:36;;;;;;;33.40;17.50;;;;;;;2.31;65.36;102490.59;4995026;28;20401;-77
2022/03/02 05:24:02;;;;;;;34.50;17.92;;;;;;;2.13;64.50;102465.97;4993478;28;20038;-79
2022/03/02 05:26:27;;;;;;;31.13;17.92;;;;;;;2.24;65.35;102482.09;4995127;28;20022;-82
2022/03/02 05:28:52;;;;;;;32.63;17.15;;;;;;;1.87;65.39;102424.38;4995147;28;20027;-80
2022/03/02 05:31:20;;;;;;;32.85;18.48;;;;;;;2.18;65.88;102486.38;4994935;28;20034;-84
2022/03/02 05:33:45;;;;;;;30.35;16.27;;;;;;;1.65;65.72;102398.09;4995149;28;20460;-77
2022/03/02 05:36:11;;;;;;;33.00;18.17;;;;;;;1.98;66.16;102455.81;4994863;28;20030;-82
2022/03/02 05:38:37;;;;;;;30.70;18.00;;;;;;;2.07;65.58;102472.81;4994643;28;20034;-76
2022/03/02 05:41:02;;;;;;;29.58;17.73;;;;;;;2.05;65.33;102470.22;4994733;28;20018;-81
2022/03/02 05:43:28;;;;;;;33.95;18.02;;;;;;;2.07;65.77;102477.91;4995008;28;20362;-84
2022/03/02 05:45:53;;;;;;;31.17;17.67;;;;;;;1.88;66.20;102454.13;4994698;28;20022;-81
2022/03/02 05:48:18;;;;;;;31.40;18.58;;;;;;;2.00;66.49;102469.41;4994769;28;20035;-85
2022/03/02 05:50:43;;;;;;;36.92;17.27;;;;;;;2.04;66.26;102480.44;4994324;28;20034;-81
2022/03/02 05:53:09;;;;;;;29.23;16.77;;;;;;;2.05;65.70;102477.88;4994458;28;20108;-87
2022/03/02 05:55:34;;;;;;;31.92;17.55;;;;;;;2.07;65.58;102477.91;4994107;28;20053;-78
2022/03/02 05:58:00;;;;;;;30.63;17.58;;;;;;;2.05;65.32;102477.88;4994539;28;20113;-89
2022/03/02 06:00:25;;;;;;;29.55;18.95;;;;;;;2.02;66.15;102477.88;4994507;28;20030;-93
2022/03/02 06:02:50;;;;;;;30.05;17.30;;;;;;;2.00;66.26;102483.00;4994380;28;20022;-78
2022/03/02 06:05:16;;;;;;;35.10;19.33;;;;;;;1.98;66.80;102483.84;4994206;28;20029;-79
2022/03/02 06:07:41;;;;;;;31.35;19.05;;;;;;;1.93;66.48;102491.47;4994080;28;20049;-77
2022/03/02 06:10:07;;;;;;;35.03;18.70;;;;;;;1.78;67.31;102473.66;4993932;28;20058;-82
2022/03/02 06:12:33;;;;;;;32.55;17.88;;;;;;;1.73;66.78;102471.09;4992980;28;20023;-76
2022/03/02 06:14:58;;;;;;;30.75;18.83;;;;;;;1.86;67.83;102492.31;4994343;28;20053;-76
2022/03/02 06:17:24;;;;;;;32.72;17.58;;;;;;;1.72;66.22;102469.41;4993556;28;20033;-77
2022/03/02 06:19:49;;;;;;;31.77;19.02;;;;;;;1.71;66.10;102469.41;4994324;28;20536;-77
2022/03/02 06:22:17;;;;;;;32.25;18.02;;;;;;;1.72;66.17;102463.47;4993955;28;20408;-76
2022/03/02 06:24:43;;;;;;;32.53;18.27;;;;;;;1.88;66.65;102495.75;4993841;28;20025;-80
2022/03/02 06:27:08;;;;;;;32.95;18.90;;;;;;;1.69;66.46;102451.59;4994296;28;20022;-80
2022/03/02 06:29:33;;;;;;;33.65;19.38;;;;;;;1.88;67.68;102490.66;4994162;28;20384;-76
2022/03/02 06:31:59;;;;;;;30.20;18.35;;;;;;;1.86;68.14;102494.88;4994640;28;20026;-77
2022/03/02 06:34:24;;;;;;;32.25;18.10;;;;;;;1.73;66.69;102470.25;5010238;28;20181;-81
2022/03/02 06:36:51;;;;;;;34.17;17.27;;;;;;;1.49;66.76;102427.00;4993615;28;20033;-86
2022/03/02 06:39:21;;;;;;;33.78;19.05;;;;;;;1.92;67.54;102497.44;4997248;28;20143;-88
2022/03/02 06:42:01;;;;;;;33.40;18.40;;;;;;;1.92;67.35;102494.88;5004784;28;20030;-77
2022/03/02 06:44:34;;;;;;;29.55;17.33;;;;;;;1.72;65.61;102459.22;5004686;28;20030;-77
2022/03/02 06:47:05;;;;;;;31.05;17.48;;;;;;;2.01;67.45;102499.97;5003639;28;20159;-78
2022/03/02 06:49:44;;;;;;;;;;;;;;;2.06;66.32;102505.03;5003948;28;20034;-83
2022/03/02 06:52:11;;;;;;;31.95;17.30;;;;;;;2.08;65.47;102502.53;5002911;28;19917;-82
2022/03/02 06:54:43;;;;;;;29.70;17.50;;;;;;;1.90;65.88;102465.16;5002803;28;20125;-78
2022/03/02 06:57:12;;;;;;;30.35;16.98;;;;;;;2.03;64.28;102482.13;5002675;28;20033;-81
2022/03/02 06:59:40;;;;;;;31.08;17.35;;;;;;;2.07;64.75;102478.75;5003557;28;20491;-77
2022/03/02 07:02:07;;;;;;;31.23;17.73;;;;;;;2.27;64.27;102504.19;4995338;28;20472;-86
2022/03/02 07:04:43;;;;;;;30.13;16.98;;;;;;;2.32;63.19;102510.13;4997584;28;20957;-81
2022/03/02 07:07:11;;;;;;;27.73;16.95;;;;;;;2.32;62.79;102506.72;4995742;28;20022;-80
2022/03/02 07:09:36;;;;;;;27.42;17.60;;;;;;;2.36;62.87;102498.22;4993863;28;20022;-80
2022/03/02 07:12:05;;;;;;;30.52;17.02;;;;;;;2.52;62.61;102510.94;4993563;28;20033;-77
2022/03/02 07:14:32;;;;;;;26.48;16.67;;;;;;;2.50;62.08;102487.13;4993236;28;20476;-79
2022/03/02 07:16:59;;;;;;;26.38;16.13;;;;;;;2.51;61.04;102488.84;4993245;28;20061;-78
2022/03/02 07:19:26;;;;;;;30.58;16.73;;;;;;;2.53;61.27;102493.91;4992972;28;20088;-79
2022/03/02 07:21:52;;;;;;;28.10;16.05;;;;;;;2.70;61.51;102515.13;4992354;28;20077;-76
2022/03/02 07:24:19;;;;;;;29.63;17.27;;;;;;;2.74;61.61;102510.84;4994115;28;20427;-79
2022/03/02 07:26:50;;;;;;;28.73;16.63;;;;;;;2.75;60.97;102503.22;4993098;28;20019;-78
2022/03/02 07:29:18;;;;;;;29.58;16.42;;;;;;;2.83;60.98;102509.13;4995968;28;20026;-75
2022/03/02 07:31:45;;;;;;;29.75;17.85;;;;;;;2.88;61.30;102506.56;4996977;28;20034;-75
2022/03/02 07:34:13;;;;;;;28.92;17.15;;;;;;;2.94;60.30;102508.22;4996891;28;20106;-74
2022/03/02 07:36:41;;;;;;;27.63;17.25;;;;;;;2.86;60.59;102492.97;4997034;28;20031;-78
2022/03/02 07:39:09;;;;;;;27.13;17.38;;;;;;;2.96;60.66;102496.34;4996847;28;20057;-75
2022/03/02 07:41:35;;;;;;;28.23;16.63;;;;;;;3.08;59.83;102506.47;4996957;28;20396;-75
2022/03/02 07:44:01;;;;;;;26.25;16.10;;;;;;;2.84;59.07;102457.22;4996986;28;20022;-76
2022/03/02 07:46:30;;;;;;;28.35;16.02;;;;;;;3.16;58.43;102510.69;4996599;28;20034;-75
2022/03/02 07:48:56;;;;;;;25.23;15.60;;;;;;;3.20;58.51;102506.41;4996653;28;20027;-74
2022/03/02 07:51:23;;;;;;;27.83;16.55;;;;;;;3.13;59.66;102490.25;4996510;28;20026;-80
2022/03/02 07:53:50;;;;;;;25.75;15.75;;;;;;;3.25;58.65;102509.78;4996298;28;20023;-75
2022/03/02 07:56:17;;;;;;;29.90;15.90;;;;;;;3.30;58.94;102505.50;4996615;28;20077;-76
2022/03/02 07:58:43;;;;;;;26.73;15.23;;;;;;;3.08;58.01;102457.97;4996842;28;20030;-78
2022/03/02 08:01:12;;;;;;;26.02;15.35;;;;;;;3.30;58.17;102487.63;4996344;28;20108;-75
2022/03/02 08:03:39;;;;;;;27.00;16.20;;;;;;;3.40;56.73;102498.63;4996211;28;20030;-78
2022/03/02 08:06:05;;;;;;;30.88;15.30;;;;;;;3.47;58.18;102505.41;4996795;28;20030;-76
2022/03/02 08:08:33;;;;;;;25.98;15.00;;;;;;;3.43;57.24;102494.34;4996408;28;20077;-78
2022/03/02 08:11:00;;;;;;;28.77;15.98;;;;;;;3.55;56.50;102498.53;4996380;28;20228;-77
2022/03/02 08:13:28;;;;;;;26.17;15.38;;;;;;;3.61;57.14;102498.47;4993518;28;20435;-74
2022/03/02 08:15:53;;;;;;;25.65;15.90;;;;;;;3.70;57.07;102506.06;4995549;28;20026;-77
2022/03/02 08:18:19;;;;;;;24.98;14.95;;;;;;;3.80;56.43;102498.34;4996154;28;20495;-74
2022/03/02 08:20:57;;;;;;;26.63;15.02;;;;;;;3.69;56.44;102473.72;4996375;28;20030;-78
2022/03/02 08:23:27;;;;;;;25.23;14.25;;;;;;;3.94;54.11;102497.38;4996075;28;20025;-77
2022/03/02 08:25:53;;;;;;;28.83;15.63;;;;;;;3.66;55.21;102439.69;4996197;28;20101;-80
2022/03/02 08:28:21;;;;;;;24.77;15.32;;;;;;;3.88;55.48;102466.75;4995922;28;20468;-79
2022/03/02 08:30:50;;;;;;;24.65;14.63;;;;;;;4.10;55.25;102485.28;4994223;28;20427;-80
2022/03/02 08:33:19;;;;;;;24.70;14.20;;;;;;;4.01;55.14;102464.91;4996198;28;20037;-79
2022/03/02 08:35:49;;;;;;;25.27;15.07;;;;;;;4.02;55.18;102452.13;4995948;28;20033;-79
2022/03/02 08:38:15;;;;;;;27.33;14.43;;;;;;;4.22;54.18;102471.53;4978211;28;20408;-81
2022/03/02 08:40:41;;;;;;;29.30;15.43;;;;;;;3.79;54.92;102394.44;4995265;28;20046;-80
2022/03/02 08:43:06;;;;;;;23.13;14.93;;;;;;;4.35;54.07;102482.50;4995788;28;20062;-81
2022/03/02 08:45:32;;;;;;;23.77;14.18;;;;;;;4.08;53.67;102424.81;4978203;28;20043;-79
2022/03/02 08:48:01;;;;;;;24.17;16.08;;;;;;;4.07;53.36;102423.13;4995457;28;20033;-78
2022/03/02 08:50:27;;;;;;;26.33;15.60;;;;;;;4.47;52.65;102467.00;4995577;28;20030;-82
2022/03/02 08:52:57;;;;;;;23.58;14.73;;;;;;;4.08;53.63;102394.13;4995431;28;20030;-76
2022/03/02 08:55:31;;;;;;;26.73;15.27;;;;;;;4.27;54.58;102424.59;4995316;28;20039;-87
2022/03/02 08:57:57;;;;;;;25.08;14.60;;;;;;;4.68;54.83;102478.69;4995520;28;20117;-78
2022/03/02 09:00:22;;;;;;;21.05;14.25;;;;;;;4.54;53.84;102440.50;4995375;28;20022;-80
2022/03/02 09:02:51;;;;;;;26.75;14.25;;;;;;;4.85;53.43;102480.19;4978038;28;20084;-76
2022/03/02 09:05:17;;;;;;;25.30;15.30;;;;;;;4.60;53.81;102422.50;4994332;28;20022;-77
2022/03/02 09:07:42;;;;;;;26.38;15.65;;;;;;;4.96;53.85;102457.00;4995432;28;20529;-77
2022/03/02 09:10:08;;;;;;;25.58;14.38;;;;;;;5.19;54.86;102474.59;4995180;28;20023;-80
2022/03/02 09:12:34;;;;;;;21.75;14.45;;;;;;;5.27;54.09;102467.66;4995177;28;20535;-75
2022/03/02 09:15:00;;;;;;;23.10;15.05;;;;;;;5.11;52.86;102432.88;4995020;28;20108;-76
2022/03/02 09:17:26;;;;;;;23.10;13.73;;;;;;;5.49;53.38;102470.75;4995280;28;20061;-76
2022/03/02 09:19:52;;;;;;;23.85;15.27;;;;;;;5.45;52.32;102440.94;4995108;28;20104;-82
2022/03/02 09:22:21;;;;;;;23.88;14.60;;;;;;;5.71;52.42;102469.56;4977611;28;20082;-79
2022/03/02 09:24:46;;;;;;;26.20;15.48;;;;;;;5.80;52.28;102455.75;4994793;28;20030;-76
2022/03/02 09:27:13;;;;;;;23.98;15.15;;;;;;;5.94;52.94;102450.38;4994931;28;20064;-77
2022/03/02 09:29:42;;;;;;;24.20;14.52;;;;;;;5.98;52.12;102431.50;4994764;28;20054;-76
2022/03/02 09:32:08;;;;;;;24.25;16.27;;;;;;;6.07;52.28;102423.63;4994865;28;20026;-74
2022/03/02 09:34:34;;;;;;;24.30;14.55;;;;;;;6.31;50.49;102443.72;4995113;28;20369;-76
2022/03/02 09:36:59;;;;;;;24.13;14.18;;;;;;;6.44;49.97;102448.59;4994834;28;20034;-78
2022/03/02 09:39:26;;;;;;;23.25;14.90;;;;;;;6.33;48.60;102418.03;4994486;28;20022;-78
2022/03/02 09:42:11;;;;;;;22.98;14.18;;;;;;;6.41;48.05;102412.75;4994693;28;20026;-78
2022/03/02 09:44:43;;;;;;;23.35;14.63;;;;;;;6.61;47.27;102439.69;4994610;28;20030;-76
2022/03/02 09:47:17;;;;;;;24.23;15.27;;;;;;;6.72;49.42;102436.06;4977175;28;20436;-77
2022/03/02 09:49:54;;;;;;;27.73;15.35;;;;;;;6.71;48.97;102418.97;4994544;28;20029;-76
2022/03/02 09:52:20;;;;;;;26.00;14.73;;;;;;;6.79;46.53;102423.06;4993484;28;20046;-79
2022/03/02 09:54:51;;;;;;;25.05;15.48;;;;;;;6.86;46.38;102439.16;4993833;28;20065;-78
2022/03/02 09:57:18;;;;;;;20.65;14.00;;;;;;;6.68;45.75;102411.31;4994370;28;20097;-78
2022/03/02 09:59:49;;;;;;;28.35;15.77;;;;;;;6.84;47.16;102433.22;4994346;28;20053;-76
2022/03/02 10:02:29;;;;;;;24.67;14.68;;;;;;;6.84;46.87;102440.91;4994343;28;20030;-76
2022/03/02 10:04:58;;;;;;;24.27;14.63;;;;;;;6.72;46.65;102431.75;4994319;28;20030;-76
2022/03/02 10:07:29;;;;;;;24.55;14.95;;;;;;;6.73;46.80;102430.88;4993968;28;20030;-77
2022/03/02 10:10:17;;;;;;;25.15;15.10;;;;;;;6.76;47.34;102438.50;4994028;28;20018;-75
2022/03/02 10:12:43;;;;;;;23.80;14.13;;;;;;;6.65;47.36;102419.06;4994257;28;20034;-77
2022/03/02 10:15:12;;;;;;;26.13;14.75;;;;;;;6.78;46.33;102439.31;4993955;28;20018;-77
2022/03/02 10:17:40;;;;;;;20.80;13.55;;;;;;;6.80;45.17;102439.31;4994012;28;20125;-75
2022/03/02 10:20:14;;;;;;;22.25;14.65;;;;;;;6.78;45.02;102438.47;4993991;28;20026;-75
2022/03/02 10:22:39;;;;;;;23.00;13.82;;;;;;;6.82;45.66;102440.94;4993918;28;20431;-75
2022/03/02 10:25:11;;;;;;;23.00;14.43;;;;;;;6.85;46.47;102429.75;4994032;28;20026;-76
2022/03/02 10:28:05;;;;;;;24.70;14.13;;;;;;;6.85;46.67;102425.47;4993830;28;20053;-75
2022/03/02 10:30:42;;;;;;;23.90;14.55;;;;;;;6.83;46.36;102424.66;4993696;28;20070;-76
2022/03/02 10:33:13;;;;;;;25.27;14.15;;;;;;;6.94;44.95;102433.84;4993838;28;20053;-74
2022/03/02 10:36:01;;;;;;;21.00;14.10;;;;;;;6.89;46.18;102410.88;4976167;28;20036;-76
2022/03/02 10:38:43;;;;;;;21.83;13.85;;;;;;;6.99;46.05;102420.06;4993660;28;20084;-76
2022/03/02 10:41:09;;;;;;;20.20;13.73;;;;;;;6.87;46.67;102389.47;4993379;28;20109;-78
2022/03/02 10:43:58;;;;;;;21.42;14.23;;;;;;;7.09;44.69;102420.69;4993868;28;20030;-76
2022/03/02 10:46:25;;;;;;;24.85;14.45;;;;;;;7.10;44.35;102415.50;4993395;28;20117;-77
2022/03/02 10:49:03;;;;;;;23.65;14.40;;;;;;;7.11;44.54;102409.50;4993294;28;20034;-77
2022/03/02 10:51:30;;;;;;;23.10;13.75;;;;;;;7.21;43.26;102424.69;4993293;28;20480;-75
2022/03/02 10:53:57;;;;;;;23.80;13.95;;;;;;;7.24;43.34;102424.59;4993233;28;20030;-75
2022/03/02 10:56:25;;;;;;;21.80;13.68;;;;;;;7.30;44.21;102419.34;4993188;28;20080;-75
2022/03/02 10:58:52;;;;;;;23.40;13.82;;;;;;;7.35;43.78;102420.91;4993292;28;20030;-76
2022/03/02 11:01:18;;;;;;;22.05;13.55;;;;;;;7.23;44.44;102392.09;4993354;28;20611;-75
2022/03/02 11:03:44;;;;;;;20.52;14.15;;;;;;;7.45;42.47;102421.50;4992950;28;20105;-77
2022/03/02 11:06:11;;;;;;;20.80;13.68;;;;;;;7.49;41.80;102420.59;4993418;28;20480;-75
2022/03/02 11:08:38;;;;;;;20.77;12.95;;;;;;;7.43;42.10;102395.84;4993266;28;20538;-76
2022/03/02 11:11:06;;;;;;;19.27;12.32;;;;;;;7.57;42.07;102404.94;4993197;28;20030;-75
2022/03/02 11:13:31;;;;;;;19.38;12.30;;;;;;;7.65;42.31;102403.88;4992944;28;20063;-75
2022/03/02 11:16:00;;;;;;;21.00;13.05;;;;;;;7.71;43.17;102405.44;4993216;28;20038;-75
2022/03/02 11:18:52;;;;;;;21.05;13.93;;;;;;;7.74;42.64;102402.78;4993014;28;20030;-77